• Join FlightAware (Why Join?)
  • Login
  • US Flag 
12:44AM EDT


 

Airport Tracker/Info


-or-


 

Live Flight TrackerFlight Track Log ✈ XOJ552 ✈ 26-Jan-2014 ✈ KCLE - MYEF / GGT

Flight Track Log - Related Links

Times and Time Zones

All times are in EST time to prevent confusion due to time zone crossing. See the XOJ552 flight status page for this flight to view local times or setup timezone preferences in your user account.

Time Position Orientation Groundspeed Altitude Reporting Facility
EST Latitude Longitude Course Direction KTS MPH feet Rate Location/Type
01:06PM 41.3892 -81.8722 166° South 175 201 2,100  Level Cleveland Center
01:06PM 41.3750 -81.8708 176° South 172 198 3,100 3,360 Climbing Cleveland Center
01:07PM 41.3558 -81.8694 177° South 198 228 4,200 3,240 Climbing Cleveland Center
01:08PM 41.3147 -81.8561 166° South 222 255 6,500 3,420 Climbing Cleveland Center
01:09PM 41.2661 -81.7464 120° Southeast 307 353 10,600 3,780 Climbing Cleveland Center
01:10PM 41.2300 -81.6233 111° Southeast 358 412 14,300 3,180 Climbing Cleveland Center
01:11PM 41.1781 -81.4947 118° Southeast 405 466 17,200 3,120 Climbing Cleveland Center
01:12PM 40.9769 -81.1478 166° South  Level FlightAware Approximate
01:12PM 41.0839 -81.4364 155° Southeast 384 442 20,700  Level Cleveland Center
01:13PM 40.9789 -81.3781 157° South 400 460 23,100 2,100 Climbing Cleveland Center
01:14PM 40.8681 -81.3161 157° South 425 489 25,100 2,160 Climbing Cleveland Center
01:15PM 40.7519 -81.2525 157° South 444 511 27,600 2,040 Climbing Cleveland Center
01:16PM 40.6381 -81.1886 157° South 443 510 29,400 1,920 Climbing Cleveland Center
01:17PM 40.5028 -81.1156 158° South 452 520 31,600 1,920 Climbing Cleveland Center
01:18PM 40.3856 -81.0533 158° South 455 524 33,400 1,740 Climbing Cleveland Center
01:19PM 40.2692 -80.9911 158° South 455 524 35,200 1,500 Climbing Cleveland Center
01:20PM 40.1550 -80.9306 158° South 450 518 36,600 1,260 Climbing Cleveland Center
01:20PM 40.0647 -80.8842 159° South 451 519 37,300 1,020 Climbing Indianapolis Center
01:22PM 39.8981 -80.7939 157° South 457 526 38,800 960 Climbing Cleveland Center
01:23PM 39.8272 -80.7575 158° South 457 526 39,400 840 Climbing Indianapolis Center
01:24PM 39.7117 -80.6828 154° Southeast 462 532 40,200 480 Climbing Indianapolis Center
01:26PM 39.4658 -80.5006 150° Southeast 480 552 41,000 240 Climbing Washington Center
01:27PM 39.3483 -80.4147 151° Southeast 480 552 41,000  Level Washington Center
01:28PM 39.2308 -80.3292 151° Southeast 485 558 41,000  Level Washington Center
01:29PM 39.1133 -80.2386 149° Southeast 485 558 41,000  Level Washington Center
01:30PM 38.9892 -80.1639 155° Southeast 490 564 41,000  Level Washington Center
01:31PM 38.8756 -80.1356 169° South 485 558 41,000  Level Washington Center
01:32PM 38.7536 -80.1039 169° South 466 536 41,000  Level Washington Center
01:33PM 38.6286 -80.0458 160° South 471 542 41,000  Level Washington Center
01:34PM 38.5058 -79.9828 158° South 476 548 41,000  Level Washington Center
01:35PM 38.3850 -79.9253 160° South 481 554 41,000  Level Washington Center
01:36PM 38.2539 -79.8594 158° South 471 542 41,000  Level Washington Center
01:37PM 38.1347 -79.8025 159° South 464 534 41,000  Level Washington Center
01:38PM 38.0181 -79.7458 159° South 459 528 41,000  Level Washington Center
01:39PM 37.8989 -79.6892 159° South 459 528 41,000  Level Washington Center
01:40PM 37.7922 -79.6361 159° South 459 528 41,000  Level Washington Center
01:41PM 37.6589 -79.5686 158° South 467 537 41,000  Level Washington Center
01:42PM 37.5417 -79.5156 160° South 462 532 41,000  Level Washington Center
01:43PM 37.4347 -79.4681 161° South 457 526 41,000  Level Washington Center
01:44PM 37.3033 -79.4039 159° South 462 532 41,000  Level Washington Center
01:45PM 37.1925 -79.3514 159° South 462 532 41,000  Level Washington Center
01:46PM 37.0753 -79.2936 159° South 462 532 41,000  Level Washington Center
01:47PM 36.9558 -79.2386 160° South 462 532 41,000  Level Washington Center
01:48PM 36.8367 -79.1836 160° South 462 532 41,000  Level Washington Center
01:49PM 36.7111 -79.1258 160° South 457 526 41,000  Level Washington Center
01:50PM 36.5978 -79.0769 161° South 449 517 41,000  Level Washington Center
01:51PM 36.4825 -79.0225 159° South 443 510 41,000  Level Washington Center
01:52PM 36.3672 -78.9711 160° South 443 510 41,000  Level Washington Center
01:53PM 36.2478 -78.9144 159° South 448 516 41,000  Level Washington Center
01:54PM 36.1303 -78.8631 161° South 448 516 41,000  Level Washington Center
01:55PM 36.0128 -78.8094 160° South 448 516 41,000  Level Washington Center
01:56PM 35.8953 -78.7561 160° South 448 516 41,000  Level Washington Center
01:57PM 35.7756 -78.7000 159° South 453 521 41,000  Level Washington Center
01:58PM 35.6600 -78.6494 160° South 453 521 41,000  Level Washington Center
01:59PM 35.5508 -78.5994 160° South 461 531 41,000  Level Washington Center
02:00PM 35.4228 -78.5411 160° South 461 531 41,000  Level Washington Center
02:01PM 35.3133 -78.4939 161° South 456 525 41,000  Level Washington Center
02:02PM 35.2019 -78.4439 160° South 450 518 41,000  Level Washington Center
02:03PM 35.0864 -78.3917 160° South 445 512 41,000  Level Washington Center
02:04PM 34.9728 -78.3397 159° South 445 512 41,000  Level Washington Center
02:05PM 34.8592 -78.2903 160° South 445 512 41,000  Level Washington Center
02:06PM 34.7372 -78.2406 161° South 438 504 41,000  Level Washington Center
02:07PM 34.6214 -78.1889 160° South 438 504 41,000  Level Washington Center
02:08PM 34.5081 -78.1225 154° Southeast 446 513 41,000  Level Washington Center
02:09PM 34.4167 -78.0039 133° Southeast 462 532 41,000 300 Level Washington Center
02:10PM 34.3119 -77.9203 147° Southeast 462 532 41,700 540 Climbing Washington Center
02:11PM 34.2039 -77.8997 171° South 444 511 42,100 360 Climbing Washington Center
02:13PM 33.9375 -77.8889 178° South 419 482 42,900 240 Climbing Jacksonville Center
02:14PM 33.8225 -77.8831 178° South 419 482 43,000  Climbing Jacksonville Center
02:15PM 33.7014 -77.8800 179° South 429 494 43,000  Level Jacksonville Center
02:16PM 33.5739 -77.8747 178° South 429 494 43,000  Level Jacksonville Center
02:17PM 33.4547 -77.8717 179° South 429 494 43,000  Level Jacksonville Center
02:18PM 33.3356 -77.8658 178° South 429 494 43,000  Level Jacksonville Center
02:19PM 33.2164 -77.8603 178° South 429 494 43,000  Level Jacksonville Center
02:20PM 33.0975 -77.8569 179° South 429 494 43,000  Level Jacksonville Center
02:21PM 32.9783 -77.8514 178° South 423 487 43,000  Level Jacksonville Center
02:22PM 32.8592 -77.8481 179° South 423 487 43,000  Level Jacksonville Center
02:23PM 32.7400 -77.8447 179° South 423 487 43,000  Level Jacksonville Center
02:24PM 32.6228 -77.8342 176° South 423 487 43,000  Level Jacksonville Center
02:25PM 32.5039 -77.8358 181° South 423 487 43,000  Level Jacksonville Center
02:26PM 32.3844 -77.8228 175° South 423 487 43,000  Level Jacksonville Center
02:28PM 32.1464 -77.8189 179° South 423 487 43,000  Level Jacksonville Center
02:29PM 32.0272 -77.8156 179° South 428 493 43,000  Level Jacksonville Center
02:30PM 31.9078 -77.8025 175° South 428 493 43,000  Level Jacksonville Center
02:31PM 31.7906 -77.7969 178° South 428 493 43,000  Level Jacksonville Center
02:32PM 31.6714 -77.7936 179° South 428 493 43,000  Level Jacksonville Center
02:33PM 31.5503 -77.7931 180° South 437 503 43,000  Level Jacksonville Center
02:34PM 31.4294 -77.7922 180° South 436 502 43,000  Level Jacksonville Center
02:35PM 31.3081 -77.7892 179° South 437 503 43,000  Level Jacksonville Center
02:36PM 31.1911 -77.7833 178° South 437 503 43,000  Level Jacksonville Center
02:37PM 31.0697 -77.7778 178° South 438 504 43,000  Level Jacksonville Center
02:38PM 30.9483 -77.7675 176° South 446 513 43,000  Level Jacksonville Center
02:39PM 30.8292 -77.7619 178° South 437 503 43,000  Level Jacksonville Center
02:40PM 30.7078 -77.7564 178° South 437 503 43,000  Level Jacksonville Center
02:41PM 30.5864 -77.7508 178° South 454 522 43,000  Level Jacksonville Center
02:43PM 30.3214 -77.7472 179° South 433 498 43,000  Level Miami Center
02:44PM 30.2025 -77.7464 180° South 428 493 43,000  Level Miami Center
02:45PM 30.0839 -77.7431 179° South 434 499 43,000  Level Miami Center
02:46PM 29.9628 -77.7347 177° South 440 506 43,000  Level Miami Center
02:47PM 29.8400 -77.7289 178° South 440 506 43,000  Level Miami Center
02:48PM 29.7147 -77.7183 176° South 447 514 43,000  Level Miami Center
02:49PM 29.5958 -77.7153 179° South 454 522 43,000  Level Miami Center
02:50PM 29.4708 -77.7069 177° South 452 520 43,000  Level Miami Center
02:51PM 29.3500 -77.7014 178° South 446 513 43,000  Level Miami Center
02:52PM 29.2269 -77.6956 178° South 441 507 43,000  Level Miami Center
02:53PM 29.0997 -77.6853 176° South 446 513 43,000  Level Miami Center
02:54PM 28.9786 -77.6794 178° South 441 507 43,000  Level Miami Center
02:55PM 28.8556 -77.6739 178° South 441 507 43,000  Level Miami Center
02:56PM 28.7283 -77.6658 177° South 446 513 43,000  Level Miami Center
02:57PM 28.6114 -77.6603 178° South 435 501 43,000  Level Miami Center
02:58PM 28.4842 -77.6547 178° South 440 506 43,000  Level Miami Center
02:59PM 28.3589 -77.6492 178° South 440 506 43,000  Level Miami Center
03:00PM 28.2336 -77.6411 177° South 445 512 43,000  Level Miami Center
03:01PM 28.1064 -77.6331 177° South 450 518 43,000  Level Miami Center
03:02PM 27.9853 -77.6253 177° South 450 518 43,000  Level Miami Center
03:03PM 27.8603 -77.5939 167° South 450 518 43,000  Level Miami Center
03:04PM 27.7394 -77.5414 159° South 463 533 43,000  Level Miami Center
03:05PM 27.6100 -77.5008 164° South 468 539 43,000  Level Miami Center
03:06PM 27.4975 -77.4417 155° Southeast 485 558 43,000  Level Miami Center
03:07PM 27.3725 -77.3897 160° South 485 558 43,000  Level Miami Center
03:08PM 27.2494 -77.3422 161° South 480 552 43,000  Level Miami Center
03:09PM 27.1264 -77.2906 160° South 462 532 43,000  Level Miami Center
03:10PM 27.0031 -77.2386 159° South 469 540 43,000  Level Miami Center
03:11PM 26.8800 -77.1942 162° South 469 540 43,000 -660 Level Miami Center
03:12PM 26.7569 -77.1425 159° South 469 540 41,700 -1,380 Descending Miami Center
03:13PM 26.6336 -77.0842 157° South 457 526 40,300 -1,380 Descending Miami Center
03:14PM 26.5147 -77.0492 165° South 457 526 39,000 -1,260 Descending Miami Center
03:15PM 26.3936 -76.9933 158° South 457 526 37,800 -1,320 Descending Miami Center
03:16PM 26.2744 -76.9467 161° South 464 534 36,400 -1,380 Descending Miami Center
03:17PM 26.1428 -76.8933 160° South 464 534 35,100 -1,200 Descending Miami Center
03:18PM 26.0194 -76.8447 160° South 464 534 34,000 -1,140 Descending Miami Center
03:19PM 25.8983 -76.7964 160° South 464 534 32,900 -1,140 Descending Miami Center
03:20PM 25.7792 -76.7481 160° South 464 534 31,800 -1,140 Descending Miami Center
03:21PM 25.6539 -76.6972 160° South 469 540 30,700 -1,140 Descending Miami Center
03:22PM 25.5325 -76.6514 161° South 469 540 29,600 -1,140 Descending Miami Center
03:23PM 25.4111 -76.6011 159° South 469 540 28,500 -1,140 Descending Miami Center
03:24PM 25.2878 -76.5531 161° South 469 540 27,400 -1,200 Descending Miami Center
03:25PM 25.1750 -76.5075 160° South 453 521 26,200 -1,200 Descending Miami Center
03:26PM 25.0597 -76.4642 161° South 441 507 25,100 -600 Descending Miami Center
03:27PM 24.9469 -76.4186 160° South 441 507 25,000 -60 Descending Miami Center
03:28PM 24.8317 -76.3733 160° South 436 502 25,000 -240 Level Miami Center
03:29PM 24.7186 -76.3281 160° South 441 507 24,600 -1,380 Descending Miami Center
03:30PM 24.6058 -76.2828 160° South 441 507 22,300 -2,400 Descending Miami Center
03:31PM 24.4969 -76.2422 161° South 431 496 19,900 -2,400 Descending Miami Center
03:32PM 24.3922 -76.1994 160° South 414 476 17,600 -2,220 Descending Miami Center
03:33PM 24.2897 -76.1611 161° South 398 458 15,500 -2,100 Descending Miami Center
03:34PM 24.1933 -76.1253 161° South 387 445 13,400 -2,100 Descending Miami Center
03:35PM 24.1033 -76.0894 160° South 364 419 11,400 -1,740 Descending Miami Center
03:36PM 24.0236 -76.0581 160° South 331 381 10,000 -1,500 Descending Miami Center
03:37PM 23.9503 -76.0311 161° South 302 348 8,500 -1,500 Descending Miami Center
03:38PM 23.8792 -76.0044 161° South 276 318 7,100 -780 Descending Miami Center
03:39PM 23.8267 -75.9844 161° South 255 293 7,000  Descending Miami Center
03:40PM 23.7744 -75.9619 158° South 220 253 7,100  Climbing Miami Center
03:41PM 23.7200 -75.9397 160° South 212 244 7,000 -60 Descending Miami Center
03:42PM 23.6633 -75.9197 162° South 212 244 7,000 -960 Level Miami Center
03:43PM 23.6069 -75.8975 160° South 206 237 5,100 -1,920 Descending Miami Center
03:45PM 23.5626 -75.8780 160° South  Level Estimated
03:52PM 23.5626 -75.8780 160° South  Level Estimated
03:53PM 23.5626 -75.8780 160° South  Level Estimated
03:54PM 23.5626 -75.8780 160° South  Level Estimated
03:55PM 23.5626 -75.8780 160° South  Level Estimated
03:56PM 23.5626 -75.8780 160° South  Level Estimated
03:57PM 23.5626 -75.8780 160° South  Level Estimated
03:58PM 23.5626 -75.8780 160° South  Level Estimated